Asbury, Missouri
Current Conditions -  °F | °C
As of 1:53 PM on Sunday 25 Jan 2015 (Local Time) from KJLN Reporting Station
Overcast Overcast  
Wind Chill:   Ceiling: 2700
Heat Index:   Visibility: 10mi
Dew Point: -1°   Wind: 22mph
Humidity: 65%   Direction: 320°NW
Pressure: 29.87"   Gusts: 30mph
Location:  37.27°N, 94.61°W
Report Text: KJLN 251953Z 32019G26KT 10SM OVC027 06/M01 A2987 RMK AO2 PK WND 30027/1941 SLP115 T00561006
Loading
Personal Weather Stations






























Interactive Weather Map New forecast layout! Learn more

10-Day Weather Forecast

Advertisements
Track Severe Weather on mobile